Time;durP1;ratioP1;P1;durP2;ratioP2;P2;SDS_P1;SDS_P2;PMS_P1;PMS_P2;Temp;Humidity;BMP_temperature;BMP_pressure;BME280_temperature;BME280_humidity;BME280_pressure;Samples;Min_cycle;Max_cycle;Signal;HPM_P1;HPM_P2
2021/08/31 00:00:09;;;;;;;;;;;17.70;93.80;17.70;99671.00;;;;345702;28;90469;-94
2021/08/31 00:00:21;;;;;;;;;;;17.70;93.90;17.80;99662.00;;;;340546;28;82276;-95
2021/08/31 00:00:33;;;;;;;;;;;17.60;93.90;17.70;99663.00;;;;339710;28;92366;-95
2021/08/31 00:00:44;;;;;;;;;;;17.60;93.80;17.70;99656.00;;;;339171;28;83259;-94
2021/08/31 00:00:56;;;;;;;;;;;17.60;93.90;17.80;99663.00;;;;341368;28;91471;-95
2021/08/31 00:01:09;;;;;;;;;;;17.60;93.90;17.70;99658.00;;;;340484;28;82523;-95
2021/08/31 00:01:21;;;;;;;;;;;17.60;93.90;17.70;99656.00;;;;342724;28;90245;-94
2021/08/31 00:01:33;;;;;;;;;;;17.60;93.90;17.70;99666.00;;;;340498;28;83392;-95
2021/08/31 00:01:45;;;;;;;;;;;17.60;93.90;17.70;99667.00;;;;339901;28;90668;-94
2021/08/31 00:01:57;;;;;;;;;;;17.60;93.90;17.70;99669.00;;;;340385;28;83371;-94
2021/08/31 00:02:09;;;;;;;;;;;17.60;93.90;17.60;99662.00;;;;340065;28;91265;-94
2021/08/31 00:02:21;;;;;;;;;;;17.50;93.90;17.70;99671.00;;;;340516;28;82371;-94
2021/08/31 00:02:33;;;;;;;;;;;17.60;93.90;17.70;99677.00;;;;340567;28;89820;-95
2021/08/31 00:02:45;;;;;;;;;;;17.60;94.00;17.70;99674.00;;;;341730;28;82593;-95
2021/08/31 00:02:57;;;;;;;;;;;17.60;93.90;17.70;99672.00;;;;339134;28;90693;-94
2021/08/31 00:03:09;;;;;;;;;;;17.60;93.90;17.70;99671.00;;;;340497;28;82417;-94
2021/08/31 00:03:21;;;;;;;;;;;17.60;93.90;17.70;99669.00;;;;340059;28;91493;-95
2021/08/31 00:03:33;;;;;;;;;;;17.60;93.90;17.70;99675.00;;;;338785;28;82714;-94
2021/08/31 00:03:45;;;;;;;;;;;17.60;93.90;17.80;99667.00;;;;338784;28;90583;-94
2021/08/31 00:03:56;;;;;;;;;;;17.60;93.90;17.70;99677.00;;;;341603;28;82504;-95
2021/08/31 00:04:08;;;;;;;;;;;17.60;93.90;17.60;99668.00;;;;340027;28;91384;-95
2021/08/31 00:04:20;;;;;;;;;;;17.60;93.90;17.70;99664.00;;;;340366;28;82581;-95
2021/08/31 00:04:32;;;;;;;;;;;17.60;93.90;17.70;99671.00;;;;342739;28;90353;-95
2021/08/31 00:04:44;;;;;;;;;;;17.60;94.00;17.70;99670.00;;;;347576;28;82484;-94
2021/08/31 00:04:58;;;;;;;;;;;17.60;94.00;17.70;99678.00;;;;347045;28;88572;-95
2021/08/31 00:05:10;;;;;;;;;;;17.60;94.00;17.60;99674.00;;;;340448;28;82507;-94
2021/08/31 00:05:23;;;;;;;;;;;17.60;94.00;17.70;99677.00;;;;338439;28;90950;-94
2021/08/31 00:05:34;;;;;;;;;;;17.50;94.00;17.70;99676.00;;;;338953;28;82601;-94
2021/08/31 00:05:46;;;;;;;;;;;17.60;94.10;17.70;99674.00;;;;341230;28;91237;-95
2021/08/31 00:05:58;;;;;;;;;;;17.60;94.10;17.60;99668.00;;;;339621;28;83562;-95
2021/08/31 00:06:10;;;;;;;;;;;17.60;94.10;17.70;99663.00;;;;344301;28;91500;-95
2021/08/31 00:06:22;;;;;;;;;;;17.50;94.00;17.80;99673.00;;;;346146;28;82498;-95
2021/08/31 00:06:34;;;;;;;;;;;17.50;94.00;17.70;99669.00;;;;339973;28;90769;-94
2021/08/31 00:06:45;;;;;;;;;;;17.50;94.00;17.70;99678.00;;;;339111;28;83456;-94
2021/08/31 00:06:57;;;;;;;;;;;17.50;94.00;17.70;99669.00;;;;339969;28;91536;-93
2021/08/31 00:07:09;;;;;;;;;;;17.50;94.00;17.70;99671.00;;;;340558;28;82453;-94
2021/08/31 00:07:21;;;;;;;;;;;17.50;93.90;17.70;99668.00;;;;339585;28;90439;-93
2021/08/31 00:07:33;;;;;;;;;;;17.50;94.00;17.70;99672.00;;;;340359;28;82576;-94
2021/08/31 00:07:45;;;;;;;;;;;17.50;94.00;17.70;99665.00;;;;340012;28;92234;-95
2021/08/31 00:07:57;;;;;;;;;;;17.50;94.00;17.70;99662.00;;;;337833;28;82565;-95
2021/08/31 00:08:09;;;;;;;;;;;17.60;94.00;17.50;99669.00;;;;340124;28;90509;-94
2021/08/31 00:08:22;;;;;;;;;;;17.50;94.00;17.60;99672.00;;;;341806;28;83444;-94
2021/08/31 00:08:34;;;;;;;;;;;17.50;94.00;17.50;99672.00;;;;338914;28;90455;-95
2021/08/31 00:08:45;;;;;;;;;;;17.50;94.10;17.40;99675.00;;;;338824;28;83536;-95
2021/08/31 00:08:57;;;;;;;;;;;17.50;94.10;17.40;99669.00;;;;339911;28;91400;-94
2021/08/31 00:09:09;;;;;;;;;;;17.40;94.10;17.40;99664.00;;;;339132;28;83523;-94
2021/08/31 00:09:21;;;;;;;;;;;17.40;94.20;17.40;99669.00;;;;338699;28;91684;-94
2021/08/31 00:09:33;;;;;;;;;;;17.40;94.20;17.50;99668.00;;;;340384;28;82495;-94
2021/08/31 00:09:47;;;;;;;;;;;17.40;94.20;17.50;99664.00;;;;337425;28;92488;-94
2021/08/31 00:09:58;;;;;;;;;;;17.40;94.20;17.50;99665.00;;;;339072;28;83451;-94
2021/08/31 00:10:11;;;;;;;;;;;17.40;94.20;17.60;99668.00;;;;338720;28;91215;-94
2021/08/31 00:10:22;;;;;;;;;;;17.40;94.20;17.50;99669.00;;;;340463;28;82550;-94
2021/08/31 00:10:34;;;;;;;;;;;17.40;94.30;17.50;99668.00;;;;345756;28;88718;-95
2021/08/31 00:10:46;;;;;;;;;;;17.40;94.20;17.50;99666.00;;;;347525;28;83527;-94
2021/08/31 00:10:58;;;;;;;;;;;17.40;94.20;17.50;99673.00;;;;337442;28;91193;-95
2021/08/31 00:11:09;;;;;;;;;;;17.40;94.20;17.40;99669.00;;;;340486;28;82504;-93
2021/08/31 00:11:21;;;;;;;;;;;17.30;94.30;17.50;99664.00;;;;338429;28;91538;-95
2021/08/31 00:11:33;;;;;;;;;;;17.30;94.30;17.50;99675.00;;;;339680;28;83388;-94
2021/08/31 00:11:45;;;;;;;;;;;17.30;94.30;17.50;99669.00;;;;341251;28;90852;-96
2021/08/31 00:11:57;;;;;;;;;;;17.40;94.40;17.50;99668.00;;;;340491;28;83327;-94
2021/08/31 00:12:09;;;;;;;;;;;17.40;94.40;17.50;99670.00;;;;338691;28;91684;-93
2021/08/31 00:12:21;;;;;;;;;;;17.30;94.30;17.50;99669.00;;;;339170;28;82514;-93
2021/08/31 00:12:33;;;;;;;;;;;17.30;94.40;17.50;99664.00;;;;341276;28;90380;-95
2021/08/31 00:12:44;;;;;;;;;;;17.30;94.40;17.50;99669.00;;;;347470;27;82385;-94
2021/08/31 00:12:56;;;;;;;;;;;17.40;94.40;17.50;99665.00;;;;347038;28;93127;-94
2021/08/31 00:13:08;;;;;;;;;;;17.30;94.40;17.50;99666.00;;;;339206;28;83529;-94
2021/08/31 00:13:20;;;;;;;;;;;17.40;94.40;17.50;99668.00;;;;336034;28;91469;-94
2021/08/31 00:13:31;;;;;;;;;;;17.40;94.40;17.50;99666.00;;;;346075;28;82489;-94
2021/08/31 00:13:43;;;;;;;;;;;17.30;94.40;17.50;99671.00;;;;345434;28;91301;-94
2021/08/31 00:13:55;;;;;;;;;;;17.40;94.40;17.50;99669.00;;;;341736;28;83368;-94
2021/08/31 00:14:07;;;;;;;;;;;17.30;94.40;17.50;99670.00;;;;341347;28;90455;-95
2021/08/31 00:14:19;;;;;;;;;;;17.30;94.30;17.50;99664.00;;;;344733;28;83420;-95
2021/08/31 00:14:31;;;;;;;;;;;17.30;94.40;17.50;99665.00;;;;339639;28;91931;-95
2021/08/31 00:14:43;;;;;;;;;;;17.30;94.40;17.40;99666.00;;;;338978;28;83499;-95
2021/08/31 00:14:55;;;;;;;;;;;17.30;94.40;17.40;99661.00;;;;339942;28;89938;-95
2021/08/31 00:15:08;;;;;;;;;;;17.30;94.40;17.50;99666.00;;;;337821;28;83401;-95
2021/08/31 00:15:20;;;;;;;;;;;17.40;94.40;17.40;99668.00;;;;338630;28;92136;-95
2021/08/31 00:15:32;;;;;;;;;;;17.40;94.50;17.50;99667.00;;;;340437;28;82552;-94
2021/08/31 00:15:43;;;;;;;;;;;17.30;94.40;17.50;99669.00;;;;339988;28;91786;-94
2021/08/31 00:15:55;;;;;;;;;;;17.30;94.40;17.50;99661.00;;;;341848;28;83316;-94
2021/08/31 00:16:07;;;;;;;;;;;17.40;94.40;17.50;99666.00;;;;338787;28;89984;-94
2021/08/31 00:16:19;;;;;;;;;;;17.30;94.40;17.40;99670.00;;;;341877;28;82442;-95
2021/08/31 00:16:31;;;;;;;;;;;17.30;94.40;17.40;99668.00;;;;341415;28;90843;-94
2021/08/31 00:16:43;;;;;;;;;;;17.30;94.40;17.40;99668.00;;;;341745;28;83325;-94
2021/08/31 00:16:55;;;;;;;;;;;17.40;94.40;17.40;99677.00;;;;340114;28;91381;-95
2021/08/31 00:17:07;;;;;;;;;;;17.30;94.40;17.40;99669.00;;;;341875;28;82260;-95
2021/08/31 00:17:18;;;;;;;;;;;17.30;94.40;17.40;99669.00;;;;341373;28;90199;-95
2021/08/31 00:17:30;;;;;;;;;;;17.30;94.50;17.50;99666.00;;;;339753;28;83589;-94
2021/08/31 00:17:43;;;;;;;;;;;17.30;94.50;17.40;99667.00;;;;338590;28;91075;-95
2021/08/31 00:17:56;;;;;;;;;;;17.30;94.50;17.40;99670.00;;;;339087;28;82491;-95
2021/08/31 00:18:08;;;;;;;;;;;17.30;94.50;17.40;99672.00;;;;338793;28;91523;-95
2021/08/31 00:18:20;;;;;;;;;;;17.30;94.50;17.40;99673.00;;;;339225;28;82410;-94
2021/08/31 00:18:32;;;;;;;;;;;17.30;94.50;17.40;99673.00;;;;338265;28;90166;-96
2021/08/31 00:18:44;;;;;;;;;;;17.30;94.60;17.40;99672.00;;;;338146;28;83397;-95
2021/08/31 00:18:55;;;;;;;;;;;17.30;94.60;17.40;99677.00;;;;337412;28;92541;-94
2021/08/31 00:19:07;;;;;;;;;;;17.20;94.60;17.50;99678.00;;;;337862;28;83436;-94
2021/08/31 00:19:19;;;;;;;;;;;17.30;94.60;17.40;99682.00;;;;345688;28;91525;-94
2021/08/31 00:19:31;;;;;;;;;;;17.30;94.60;17.40;99676.00;;;;344771;28;82992;-95
2021/08/31 00:19:45;;;;;;;;;;;17.30;94.60;17.40;99676.00;;;;345541;28;90550;-94
2021/08/31 00:19:57;;;;;;;;;;;17.30;94.60;17.40;99680.00;;;;344675;28;82502;-95
2021/08/31 00:20:10;;;;;;;;;;;17.30;94.60;17.40;99672.00;;;;337395;28;91277;-94
2021/08/31 00:20:22;;;;;;;;;;;17.20;94.50;17.50;99677.00;;;;338989;28;82506;-94
2021/08/31 00:20:34;;;;;;;;;;;17.20;94.50;17.50;99669.00;;;;345417;28;90574;-94
2021/08/31 00:20:46;;;;;;;;;;;17.30;94.50;17.50;99670.00;;;;344614;28;82621;-94
2021/08/31 00:20:58;;;;;;;;;;;17.30;94.50;17.50;99677.00;;;;338702;28;91422;-95
2021/08/31 00:21:10;;;;;;;;;;;17.30;94.50;17.40;99675.00;;;;339154;28;82515;-95
2021/08/31 00:21:22;;;;;;;;;;;17.30;94.50;17.40;99670.00;;;;337221;28;91720;-93
2021/08/31 00:21:34;;;;;;;;;;;17.30;94.60;17.40;99675.00;;;;337617;28;82575;-94
2021/08/31 00:21:46;;;;;;;;;;;17.30;94.60;17.50;99675.00;;;;338778;28;91916;-94
2021/08/31 00:21:58;;;;;;;;;;;17.30;94.60;17.50;99671.00;;;;338961;28;82537;-94
2021/08/31 00:22:09;;;;;;;;;;;17.20;94.60;17.50;99670.00;;;;337410;28;90427;-94
2021/08/31 00:22:21;;;;;;;;;;;17.30;94.80;17.40;99677.00;;;;339178;28;83465;-94
2021/08/31 00:22:35;;;;;;;;;;;17.20;94.60;17.40;99672.00;;;;344293;28;90713;-95
2021/08/31 00:22:47;;;;;;;;;;;17.20;94.60;17.40;99678.00;;;;348852;27;83432;-95
2021/08/31 00:22:58;;;;;;;;;;;17.30;94.60;17.40;99672.00;;;;341367;28;91147;-94
2021/08/31 00:23:10;;;;;;;;;;;17.20;94.60;17.30;99672.00;;;;347495;28;83364;-94
2021/08/31 00:23:22;;;;;;;;;;;17.30;94.60;17.40;99680.00;;;;342836;28;91895;-95
2021/08/31 00:23:34;;;;;;;;;;;17.20;94.60;17.40;99679.00;;;;345924;28;82554;-95
2021/08/31 00:23:47;;;;;;;;;;;17.20;94.60;17.30;99676.00;;;;341243;28;90212;-95
2021/08/31 00:23:59;;;;;;;;;;;17.20;94.60;17.30;99672.00;;;;341809;28;82367;-94
2021/08/31 00:24:10;;;;;;;;;;;17.20;94.90;17.40;99682.00;;;;341401;28;91863;-95
2021/08/31 00:24:22;;;;;;;;;;;17.20;94.70;17.40;99678.00;;;;340430;28;83501;-95
2021/08/31 00:24:37;;;;;;;;;;;17.20;94.70;17.30;99671.00;;;;345663;28;89983;-94
2021/08/31 00:24:49;;;;;;;;;;;17.20;94.70;17.20;99668.00;;;;347499;28;82520;-92
2021/08/31 00:25:02;;;;;;;;;;;17.20;94.70;17.30;99680.00;;;;339935;28;91858;-95
2021/08/31 00:25:14;;;;;;;;;;;17.20;94.70;17.20;99682.00;;;;344656;28;83218;-94
2021/08/31 00:25:26;;;;;;;;;;;17.20;94.80;17.20;99677.00;;;;345742;28;90627;-95
2021/08/31 00:25:37;;;;;;;;;;;17.20;94.70;17.20;99679.00;;;;346121;28;83388;-94
2021/08/31 00:25:52;;;;;;;;;;;17.20;94.70;17.30;99675.00;;;;347032;28;92202;-93
2021/08/31 00:26:04;;;;;;;;;;;17.20;94.80;17.30;99680.00;;;;339161;28;83437;-95
2021/08/31 00:26:16;;;;;;;;;;;17.20;94.80;17.30;99676.00;;;;337437;28;90467;-95
2021/08/31 00:26:28;;;;;;;;;;;17.20;94.80;17.30;99679.00;;;;338089;28;83709;-94
2021/08/31 00:26:40;;;;;;;;;;;17.20;94.80;17.40;99679.00;;;;345664;28;91123;-94
2021/08/31 00:26:51;;;;;;;;;;;17.20;94.80;17.40;99674.00;;;;339222;28;83401;-94
2021/08/31 00:27:03;;;;;;;;;;;17.20;94.80;17.40;99677.00;;;;338758;28;90934;-95
2021/08/31 00:27:15;;;;;;;;;;;17.20;94.80;17.40;99676.00;;;;339066;28;82435;-94
2021/08/31 00:27:27;;;;;;;;;;;17.20;94.80;17.40;99676.00;;;;344392;28;87684;-95
2021/08/31 00:27:39;;;;;;;;;;;17.20;94.80;17.40;99673.00;;;;340392;28;83385;-95
2021/08/31 00:27:50;;;;;;;;;;;17.20;94.80;17.30;99673.00;;;;347181;28;88833;-95
2021/08/31 00:28:03;;;;;;;;;;;17.20;94.70;17.30;99679.00;;;;346054;28;83432;-95
2021/08/31 00:28:15;;;;;;;;;;;17.20;94.70;17.30;99680.00;;;;338718;28;90295;-95
2021/08/31 00:28:26;;;;;;;;;;;17.20;94.80;17.30;99674.00;;;;339179;28;83405;-94
2021/08/31 00:28:38;;;;;;;;;;;17.20;94.80;17.30;99675.00;;;;338577;28;91361;-93
2021/08/31 00:28:50;;;;;;;;;;;17.20;94.80;17.30;99675.00;;;;340608;28;83406;-95
2021/08/31 00:29:02;;;;;;;;;;;17.20;94.80;17.40;99676.00;;;;338657;28;91813;-94
2021/08/31 00:29:14;;;;;;;;;;;17.20;94.80;17.30;99674.00;;;;341836;28;82485;-94
2021/08/31 00:29:25;;;;;;;;;;;17.20;94.80;17.30;99668.00;;;;339049;28;90353;-94
2021/08/31 00:29:37;;;;;;;;;;;17.20;94.80;17.30;99674.00;;;;347493;28;82540;-94
2021/08/31 00:29:49;;;;;;;;;;;17.20;94.70;17.30;99675.00;;;;344309;28;91972;-95
2021/08/31 00:30:01;;;;;;;;;;;17.20;94.70;17.40;99664.00;;;;340267;28;82604;-93
2021/08/31 00:30:13;;;;;;;;;;;17.20;94.70;17.40;99675.00;;;;341066;28;91429;-95
2021/08/31 00:30:25;;;;;;;;;;;17.20;94.80;17.40;99674.00;;;;340463;28;82556;-95
2021/08/31 00:30:36;;;;;;;;;;;17.20;94.80;17.40;99674.00;;;;338592;28;93550;-94
2021/08/31 00:30:48;;;;;;;;;;;17.20;94.80;17.40;99668.00;;;;341828;28;83349;-95
2021/08/31 00:31:00;;;;;;;;;;;17.20;94.80;17.40;99675.00;;;;339940;28;89997;-94
2021/08/31 00:31:12;;;;;;;;;;;17.20;94.80;17.40;99668.00;;;;340490;28;82630;-95
2021/08/31 00:31:24;;;;;;;;;;;17.20;94.80;17.40;99672.00;;;;338641;28;92695;-94
2021/08/31 00:31:36;;;;;;;;;;;17.20;94.80;17.40;99679.00;;;;340461;28;82251;-93
2021/08/31 00:31:48;;;;;;;;;;;17.20;94.80;17.30;99672.00;;;;340116;28;90590;-94
2021/08/31 00:32:01;;;;;;;;;;;17.20;94.80;17.30;99671.00;;;;339069;28;83561;-94
2021/08/31 00:32:13;;;;;;;;;;;17.20;94.80;17.40;99677.00;;;;339767;28;90601;-94
2021/08/31 00:32:24;;;;;;;;;;;17.20;94.80;17.40;99679.00;;;;346996;28;83526;-95
2021/08/31 00:32:36;;;;;;;;;;;17.20;94.80;17.40;99670.00;;;;339330;28;90576;-94
2021/08/31 00:32:48;;;;;;;;;;;17.20;94.80;17.30;99674.00;;;;341837;28;83566;-94
2021/08/31 00:33:00;;;;;;;;;;;17.20;94.90;17.40;99672.00;;;;338674;28;92007;-95
2021/08/31 00:33:11;;;;;;;;;;;17.20;94.90;17.40;99673.00;;;;344785;28;82480;-94
2021/08/31 00:33:23;;;;;;;;;;;17.20;94.90;17.40;99676.00;;;;347097;28;90028;-94
2021/08/31 00:33:35;;;;;;;;;;;17.20;94.90;17.40;99674.00;;;;344851;28;82435;-95
2021/08/31 00:33:47;;;;;;;;;;;17.20;94.90;17.30;99672.00;;;;345749;28;90160;-96
2021/08/31 00:33:59;;;;;;;;;;;17.20;94.90;17.30;99673.00;;;;339093;28;82476;-93
2021/08/31 00:34:10;;;;;;;;;;;17.20;94.90;17.40;99669.00;;;;340004;28;91300;-94
2021/08/31 00:34:22;;;;;;;;;;;17.20;94.90;17.40;99672.00;;;;340486;28;82509;-94
2021/08/31 00:34:34;;;;;;;;;;;17.20;94.90;17.40;99674.00;;;;338654;28;90976;-95
2021/08/31 00:34:46;;;;;;;;;;;17.20;94.90;17.40;99678.00;;;;339170;28;83018;-95
2021/08/31 00:34:57;;;;;;;;;;;17.20;94.90;17.40;99673.00;;;;340008;28;91130;-95
2021/08/31 00:35:10;;;;;;;;;;;17.20;94.90;17.40;99672.00;;;;340362;28;82309;-94
2021/08/31 00:35:22;;;;;;;;;;;17.20;94.90;17.40;99672.00;;;;341256;28;88323;-94
2021/08/31 00:35:34;;;;;;;;;;;17.20;94.90;17.40;99675.00;;;;345644;28;83272;-94
2021/08/31 00:35:46;;;;;;;;;;;17.20;94.90;17.30;99678.00;;;;346838;28;90929;-94
2021/08/31 00:35:59;;;;;;;;;;;17.20;94.90;17.40;99674.00;;;;346101;28;82487;-95
2021/08/31 00:36:10;;;;;;;;;;;17.20;94.90;17.40;99677.00;;;;345679;28;90390;-94
2021/08/31 00:36:22;;;;;;;;;;;17.20;94.90;17.40;99675.00;;;;339012;28;83393;-94
2021/08/31 00:36:34;;;;;;;;;;;17.20;94.90;17.40;99677.00;;;;341155;28;90215;-95
2021/08/31 00:36:46;;;;;;;;;;;17.20;94.90;17.40;99678.00;;;;339202;28;82425;-94
2021/08/31 00:36:58;;;;;;;;;;;17.20;94.90;17.40;99676.00;;;;338704;28;92547;-94
2021/08/31 00:37:10;;;;;;;;;;;17.20;94.90;17.30;99678.00;;;;341813;28;83408;-94
2021/08/31 00:37:22;;;;;;;;;;;17.20;94.90;17.30;99671.00;;;;337342;28;90616;-94
2021/08/31 00:37:33;;;;;;;;;;;17.20;94.90;17.40;99666.00;;;;339201;28;83357;-94
2021/08/31 00:37:45;;;;;;;;;;;17.20;95.00;17.40;99679.00;;;;338803;28;91318;-95
2021/08/31 00:37:57;;;;;;;;;;;17.20;95.20;17.30;99679.00;;;;339089;28;83459;-95
2021/08/31 00:38:09;;;;;;;;;;;17.20;94.90;17.40;99671.00;;;;344313;28;91496;-94
2021/08/31 00:38:21;;;;;;;;;;;17.20;94.90;17.40;99677.00;;;;344514;28;83378;-94
2021/08/31 00:38:33;;;;;;;;;;;17.20;94.90;17.40;99683.00;;;;340105;28;90730;-94
2021/08/31 00:38:45;;;;;;;;;;;17.20;94.90;17.40;99674.00;;;;340346;28;82648;-94
2021/08/31 00:38:57;;;;;;;;;;;17.20;94.90;17.40;99667.00;;;;346488;28;88887;-96
2021/08/31 00:39:09;;;;;;;;;;;17.20;95.00;17.30;99677.00;;;;347465;28;83346;-94
2021/08/31 00:39:21;;;;;;;;;;;17.20;94.90;17.40;99678.00;;;;341359;28;91414;-93
2021/08/31 00:39:33;;;;;;;;;;;17.10;94.90;17.40;99674.00;;;;340312;28;83529;-94
2021/08/31 00:39:45;;;;;;;;;;;17.10;94.90;17.40;99682.00;;;;338759;28;90933;-94
2021/08/31 00:39:56;;;;;;;;;;;17.20;95.00;17.30;99684.00;;;;340431;28;82672;-95
2021/08/31 00:40:09;;;;;;;;;;;17.20;95.00;17.20;99674.00;;;;340045;28;91700;-93
2021/08/31 00:40:21;;;;;;;;;;;17.10;95.00;17.30;99674.00;;;;337793;28;82500;-94
2021/08/31 00:40:32;;;;;;;;;;;17.10;95.00;17.30;99685.00;;;;337431;28;88980;-94
2021/08/31 00:40:46;;;;;;;;;;;17.10;95.10;17.30;99682.00;;;;340322;28;83491;-95
2021/08/31 00:40:59;;;;;;;;;;;17.10;95.00;17.30;99679.00;;;;338687;28;92167;-95
2021/08/31 00:41:11;;;;;;;;;;;17.10;95.10;17.30;99677.00;;;;339149;28;82447;-95
2021/08/31 00:41:23;;;;;;;;;;;17.10;95.10;17.30;99674.00;;;;342883;28;90437;-93
2021/08/31 00:41:36;;;;;;;;;;;17.10;95.10;17.30;99680.00;;;;345236;28;83522;-95
2021/08/31 00:41:48;;;;;;;;;;;17.10;95.10;17.30;99674.00;;;;343015;28;90721;-95
2021/08/31 00:42:00;;;;;;;;;;;17.10;95.10;17.30;99668.00;;;;344129;28;82640;-94
2021/08/31 00:42:11;;;;;;;;;;;17.10;95.00;17.30;99669.00;;;;338720;28;91862;-94
2021/08/31 00:42:25;;;;;;;;;;;17.10;95.10;17.40;99675.00;;;;346012;28;83401;-94
2021/08/31 00:42:37;;;;;;;;;;;17.10;95.10;17.40;99680.00;;;;342923;28;90395;-94
2021/08/31 00:42:49;;;;;;;;;;;17.20;95.10;17.30;99676.00;;;;339181;28;82413;-95
2021/08/31 00:43:01;;;;;;;;;;;17.10;95.00;17.30;99670.00;;;;340032;28;92474;-95
2021/08/31 00:43:13;;;;;;;;;;;17.10;95.00;17.30;99675.00;;;;343073;28;83373;-94
2021/08/31 00:43:24;;;;;;;;;;;17.10;95.10;17.20;99672.00;;;;338608;28;90079;-95
2021/08/31 00:43:46;;;;;;;;;;;17.10;95.10;17.20;99669.00;;;;340488;28;83379;-94
2021/08/31 00:43:58;;;;;;;;;;;17.10;95.10;17.30;99674.00;;;;338644;28;91974;-94
2021/08/31 00:44:22;;;;;;;;;;;17.10;95.10;17.30;99670.00;;;;339131;28;83438;-94
2021/08/31 00:44:34;;;;;;;;;;;17.10;95.10;17.30;99672.00;;;;340947;28;90433;-95
2021/08/31 00:44:45;;;;;;;;;;;17.10;95.10;17.30;99675.00;;;;340071;28;83528;-94
2021/08/31 00:44:57;;;;;;;;;;;17.10;95.10;17.20;99670.00;;;;338595;28;92041;-94
2021/08/31 00:45:09;;;;;;;;;;;17.10;95.10;17.20;99681.00;;;;340504;28;82497;-94
2021/08/31 00:45:21;;;;;;;;;;;17.10;95.20;17.20;99671.00;;;;338505;28;92433;-94
2021/08/31 00:45:34;;;;;;;;;;;17.00;95.20;17.20;99676.00;;;;340405;28;83531;-94
2021/08/31 00:45:46;;;;;;;;;;;17.10;95.20;17.30;99671.00;;;;338732;28;91732;-96
2021/08/31 00:45:58;;;;;;;;;;;17.00;95.20;17.30;99667.00;;;;339158;28;82376;-95
2021/08/31 00:46:11;;;;;;;;;;;17.00;95.30;17.30;99674.00;;;;345642;28;91273;-94
2021/08/31 00:46:23;;;;;;;;;;;17.10;95.30;17.30;99678.00;;;;346207;28;83180;-95
2021/08/31 00:46:35;;;;;;;;;;;17.10;95.30;17.30;99679.00;;;;340075;28;90471;-94
2021/08/31 00:46:49;;;;;;;;;;;17.10;95.30;17.20;99674.00;;;;339088;28;82525;-95
2021/08/31 00:47:04;;;;;;;;;;;17.10;95.30;17.20;99670.00;;;;340032;28;91367;-93
2021/08/31 00:47:16;;;;;;;;;;;17.10;95.30;17.30;99678.00;;;;345963;28;83451;-94
2021/08/31 00:47:28;;;;;;;;;;;17.10;95.30;17.20;99674.00;;;;343939;28;92043;-96
2021/08/31 00:47:39;;;;;;;;;;;17.10;95.30;17.30;99674.00;;;;339297;28;83478;-95
2021/08/31 00:47:51;;;;;;;;;;;17.10;95.30;17.30;99666.00;;;;341361;28;90587;-95
2021/08/31 00:48:04;;;;;;;;;;;17.10;95.30;17.30;99674.00;;;;339202;28;82484;-95
2021/08/31 00:48:22;;;;;;;;;;;17.10;95.30;17.30;99682.00;;;;338623;28;91565;-94
2021/08/31 00:48:34;;;;;;;;;;;17.10;95.30;17.30;99673.00;;;;341499;28;84028;-94
2021/08/31 00:48:50;;;;;;;;;;;17.10;95.30;17.20;99667.00;;;;341348;28;91871;-95
2021/08/31 00:49:02;;;;;;;;;;;17.00;95.20;17.20;99675.00;;;;340487;28;83357;-95
2021/08/31 00:49:13;;;;;;;;;;;17.10;95.30;17.30;99671.00;;;;342907;28;91597;-94
2021/08/31 00:49:26;;;;;;;;;;;17.10;95.30;17.20;99675.00;;;;344737;28;82425;-95
2021/08/31 00:49:37;;;;;;;;;;;17.10;95.30;17.30;99679.00;;;;345571;28;92873;-95
2021/08/31 00:49:50;;;;;;;;;;;17.00;95.30;17.30;99671.00;;;;344651;28;82525;-94
2021/08/31 00:50:02;;;;;;;;;;;17.00;95.30;17.30;99672.00;;;;338732;28;91570;-95
2021/08/31 00:50:16;;;;;;;;;;;17.10;95.30;17.30;99675.00;;;;346099;28;82502;-95
2021/08/31 00:50:28;;;;;;;;;;;17.10;95.30;17.30;99674.00;;;;345275;28;90218;-93
2021/08/31 00:50:40;;;;;;;;;;;17.10;95.30;17.30;99677.00;;;;339061;28;82540;-94
2021/08/31 00:50:52;;;;;;;;;;;17.10;95.40;17.30;99675.00;;;;339888;28;89911;-94
2021/08/31 00:51:03;;;;;;;;;;;17.10;95.30;17.30;99672.00;;;;339029;28;83311;-95
2021/08/31 00:51:16;;;;;;;;;;;17.00;95.30;17.20;99674.00;;;;344189;28;91103;-94
2021/08/31 00:51:28;;;;;;;;;;;17.10;95.40;17.20;99667.00;;;;344664;28;82488;-94
2021/08/31 00:51:40;;;;;;;;;;;17.00;95.30;17.20;99674.00;;;;338603;28;91741;-95
2021/08/31 00:51:53;;;;;;;;;;;17.10;95.30;17.20;99672.00;;;;337906;28;82455;-95
2021/08/31 00:52:05;;;;;;;;;;;17.10;95.30;17.20;99667.00;;;;336064;28;90554;-95
2021/08/31 00:52:17;;;;;;;;;;;17.10;95.30;17.20;99674.00;;;;337870;28;82475;-95
2021/08/31 00:52:28;;;;;;;;;;;17.00;95.30;17.10;99677.00;;;;338572;28;91341;-94
2021/08/31 00:52:40;;;;;;;;;;;17.10;95.30;17.20;99672.00;;;;337599;28;82561;-94
2021/08/31 00:52:52;;;;;;;;;;;17.00;95.30;17.20;99677.00;;;;338715;28;90255;-95
2021/08/31 00:53:04;;;;;;;;;;;17.00;95.40;17.20;99663.00;;;;340538;28;82490;-95
2021/08/31 00:53:16;;;;;;;;;;;17.10;95.40;17.20;99670.00;;;;338702;28;91378;-94
2021/08/31 00:53:28;;;;;;;;;;;17.10;95.40;17.20;99674.00;;;;339593;28;83740;-95
2021/08/31 00:53:40;;;;;;;;;;;17.10;95.40;17.10;99670.00;;;;337929;28;92977;-95
2021/08/31 00:53:52;;;;;;;;;;;17.10;95.50;17.10;99672.00;;;;339210;28;82530;-94
2021/08/31 00:54:03;;;;;;;;;;;17.00;95.40;17.10;99665.00;;;;338740;28;92130;-95
2021/08/31 00:54:18;;;;;;;;;;;17.10;95.40;17.10;99671.00;;;;344799;28;83372;-94
2021/08/31 00:54:30;;;;;;;;;;;17.00;95.40;17.10;99672.00;;;;344187;28;91540;-94
2021/08/31 00:54:42;;;;;;;;;;;17.00;95.40;17.20;99675.00;;;;340417;28;82469;-95
2021/08/31 00:54:54;;;;;;;;;;;17.00;95.40;17.20;99670.00;;;;338680;28;91321;-95
2021/08/31 00:55:12;;;;;;;;;;;17.10;95.50;17.20;99669.00;;;;337861;28;82488;-95
2021/08/31 00:55:24;;;;;;;;;;;17.00;95.50;17.20;99675.00;;;;335924;28;91915;-95
2021/08/31 00:55:36;;;;;;;;;;;17.00;95.40;17.20;99663.00;;;;339126;28;83428;-94
2021/08/31 00:55:48;;;;;;;;;;;17.00;95.50;17.20;99667.00;;;;338705;28;91787;-94
2021/08/31 00:56:00;;;;;;;;;;;17.00;95.50;17.20;99665.00;;;;340444;28;82648;-94
2021/08/31 00:56:12;;;;;;;;;;;17.00;95.50;17.10;99670.00;;;;338737;28;90570;-95
2021/08/31 00:56:24;;;;;;;;;;;17.00;95.50;17.20;99682.00;;;;340966;28;82524;-94
2021/08/31 00:56:36;;;;;;;;;;;17.00;95.40;17.10;99666.00;;;;336846;28;91031;-95
2021/08/31 00:56:48;;;;;;;;;;;17.00;95.50;17.10;99667.00;;;;337828;28;83456;-95
2021/08/31 00:57:04;;;;;;;;;;;17.00;95.50;17.10;99667.00;;;;338280;28;90384;-95
2021/08/31 00:57:16;;;;;;;;;;;17.00;95.50;17.20;99666.00;;;;337730;28;83460;-94
2021/08/31 00:57:28;;;;;;;;;;;17.00;95.60;17.20;99669.00;;;;338627;28;90437;-94
2021/08/31 00:57:39;;;;;;;;;;;17.00;95.60;17.20;99658.00;;;;344682;28;83357;-94
2021/08/31 00:57:51;;;;;;;;;;;17.00;95.60;17.20;99671.00;;;;344230;28;92170;-94
2021/08/31 00:58:03;;;;;;;;;;;17.00;95.50;17.20;99666.00;;;;340394;28;83465;-94
2021/08/31 00:58:15;;;;;;;;;;;17.00;95.50;17.10;99666.00;;;;340039;28;90666;-94
2021/08/31 00:58:27;;;;;;;;;;;17.00;95.60;17.10;99666.00;;;;339211;28;83366;-94
2021/08/31 00:58:39;;;;;;;;;;;17.00;95.60;17.00;99668.00;;;;341401;28;91011;-95
2021/08/31 00:58:51;;;;;;;;;;;17.00;95.60;17.10;99667.00;;;;341513;28;83401;-94
2021/08/31 00:59:03;;;;;;;;;;;17.00;95.60;17.10;99665.00;;;;338678;28;91358;-95
2021/08/31 00:59:18;;;;;;;;;;;17.00;95.60;17.20;99664.00;;;;340587;28;82456;-95
2021/08/31 00:59:30;;;;;;;;;;;17.00;95.70;17.10;99671.00;;;;337186;28;92542;-94
2021/08/31 00:59:42;;;;;;;;;;;16.90;95.60;17.20;99667.00;;;;338390;28;83451;-95
2021/08/31 00:59:54;;;;;;;;;;;17.00;95.60;17.20;99673.00;;;;338539;28;91618;-95
2021/08/31 01:00:10;;;;;;;;;;;17.00;95.90;17.10;99668.00;;;;339132;28;83556;-95
2021/08/31 01:00:22;;;;;;;;;;;17.00;95.70;17.10;99667.00;;;;342991;28;90850;-94